Time;durP1;ratioP1;P1;durP2;ratioP2;P2;SDS_P1;SDS_P2;PMS_P1;PMS_P2;Temp;Humidity;BMP_temperature;BMP_pressure;BME280_temperature;BME280_humidity;BME280_pressure;Samples;Min_cycle;Max_cycle;Signal;HPM_P1;HPM_P2
2021/10/20 00:01:16;;;;;;;23.17;18.38;;;;;;;;;;4954463;29;20034;-76
2021/10/20 00:03:42;;;;;;;26.30;19.27;;;;;;;;;;4950161;28;20540;-75
2021/10/20 00:06:08;;;;;;;26.02;18.67;;;;;;;;;;4957290;29;20031;-75
2021/10/20 00:08:35;;;;;;;25.20;18.70;;;;;;;;;;4957640;29;20118;-76
2021/10/20 00:11:03;;;;;;;27.20;19.83;;;;;;;;;;4957728;29;20094;-75
2021/10/20 00:13:29;;;;;;;30.55;21.67;;;;;;;;;;4939389;29;20200;-75
2021/10/20 00:15:55;;;;;;;26.27;20.60;;;;;;;;;;4956903;28;20021;-75
2021/10/20 00:18:21;;;;;;;28.40;21.27;;;;;;;;;;4957029;29;20069;-74
2021/10/20 00:20:47;;;;;;;30.52;21.58;;;;;;;;;;4939761;29;20034;-74
2021/10/20 00:23:13;;;;;;;29.45;21.73;;;;;;;;;;4955636;29;20027;-75
2021/10/20 00:25:40;;;;;;;30.10;21.50;;;;;;;;;;4957399;29;20035;-74
2021/10/20 00:28:07;;;;;;;27.63;20.98;;;;;;;;;;4956948;28;20085;-75
2021/10/20 00:30:33;;;;;;;31.52;21.50;;;;;;;;;;4956607;29;20047;-76
2021/10/20 00:33:00;;;;;;;30.95;22.02;;;;;;;;;;4956429;29;20042;-76
2021/10/20 00:35:28;;;;;;;28.10;22.67;;;;;;;;;;4957671;29;20082;-77
2021/10/20 00:37:54;;;;;;;31.70;23.30;;;;;;;;;;4958723;29;20110;-75
2021/10/20 00:40:21;;;;;;;27.63;20.30;;;;;;;;;;4955504;29;20426;-73
2021/10/20 00:42:47;;;;;;;30.60;21.40;;;;;;;;;;4955949;29;20031;-75
2021/10/20 00:45:15;;;;;;;25.52;19.85;;;;;;;;;;4954839;29;20031;-75
2021/10/20 00:47:42;;;;;;;23.17;19.60;;;;;;;;;;4955197;29;20077;-76
2021/10/20 00:50:12;;;;;;;23.95;19.88;;;;;;;;;;4954489;29;20027;-75
2021/10/20 00:52:38;;;;;;;22.58;18.05;;;;;;;;;;4955083;29;20130;-75
2021/10/20 00:55:05;;;;;;;25.48;18.70;;;;;;;;;;4955708;28;20067;-74
2021/10/20 00:57:32;;;;;;;28.40;17.65;;;;;;;;;;4954995;29;20027;-76
2021/10/20 01:00:01;;;;;;;21.00;15.35;;;;;;;;;;4955547;29;20102;-74
2021/10/20 01:02:27;;;;;;;21.85;16.73;;;;;;;;;;4954241;29;20089;-76
2021/10/20 01:04:53;;;;;;;23.33;16.77;;;;;;;;;;4937336;29;20448;-76
2021/10/20 01:07:22;;;;;;;19.65;15.27;;;;;;;;;;4955719;29;20039;-76
2021/10/20 01:09:48;;;;;;;22.70;14.73;;;;;;;;;;4955466;29;20042;-73
2021/10/20 01:12:15;;;;;;;21.13;15.57;;;;;;;;;;4954733;29;20114;-75
2021/10/20 01:14:42;;;;;;;20.92;15.38;;;;;;;;;;4955140;29;20481;-76
2021/10/20 01:17:08;;;;;;;23.02;15.02;;;;;;;;;;4954967;29;20520;-74
2021/10/20 01:19:34;;;;;;;24.05;14.85;;;;;;;;;;4954313;29;20110;-76
2021/10/20 01:22:01;;;;;;;22.58;15.40;;;;;;;;;;4955295;29;20030;-75
2021/10/20 01:24:27;;;;;;;23.17;15.13;;;;;;;;;;4962476;28;20027;-76
2021/10/20 01:26:55;;;;;;;21.85;14.80;;;;;;;;;;4955416;29;20027;-76
2021/10/20 01:29:21;;;;;;;20.73;14.43;;;;;;;;;;4955131;28;20038;-75
2021/10/20 01:31:49;;;;;;;17.65;14.68;;;;;;;;;;4954348;29;20039;-76
2021/10/20 01:34:15;;;;;;;22.33;14.65;;;;;;;;;;4954881;29;20020;-75
2021/10/20 01:36:43;;;;;;;20.73;14.30;;;;;;;;;;4953864;29;20049;-76
2021/10/20 01:39:09;;;;;;;21.50;14.57;;;;;;;;;;4955464;29;20038;-75
2021/10/20 01:41:35;;;;;;;23.58;15.05;;;;;;;;;;4955018;29;20393;-75
2021/10/20 01:44:02;;;;;;;19.88;14.48;;;;;;;;;;4955186;29;20035;-75
2021/10/20 01:46:30;;;;;;;17.98;14.52;;;;;;;;;;4954583;29;20442;-75
2021/10/20 01:48:56;;;;;;;19.55;14.55;;;;;;;;;;4954785;29;20047;-75
2021/10/20 01:51:22;;;;;;;18.92;14.63;;;;;;;;;;4937396;29;20031;-74
2021/10/20 01:53:48;;;;;;;20.65;14.80;;;;;;;;;;4955355;29;20038;-75
2021/10/20 01:56:17;;;;;;;18.67;14.43;;;;;;;;;;4955168;29;20030;-75
2021/10/20 01:58:43;;;;;;;20.15;14.95;;;;;;;;;;4954293;29;20023;-75
2021/10/20 02:01:09;;;;;;;18.92;15.15;;;;;;;;;;4954657;29;20035;-75
2021/10/20 02:03:39;;;;;;;19.17;14.85;;;;;;;;;;4954739;28;20023;-75
2021/10/20 02:06:06;;;;;;;19.02;14.50;;;;;;;;;;4954091;29;20503;-75
2021/10/20 02:08:32;;;;;;;19.38;14.15;;;;;;;;;;4954888;29;20026;-76
2021/10/20 02:10:58;;;;;;;18.27;14.40;;;;;;;;;;4954885;29;20086;-76
2021/10/20 02:13:24;;;;;;;19.15;13.77;;;;;;;;;;4937615;29;20449;-76
2021/10/20 02:15:51;;;;;;;17.80;15.35;;;;;;;;;;4954361;28;20114;-76
2021/10/20 02:18:17;;;;;;;18.65;14.82;;;;;;;;;;4957058;29;20035;-75
2021/10/20 02:20:43;;;;;;;18.80;14.90;;;;;;;;;;4941160;29;20039;-75
2021/10/20 02:23:09;;;;;;;19.45;15.85;;;;;;;;;;4958594;29;20366;-75
2021/10/20 02:25:36;;;;;;;20.58;16.00;;;;;;;;;;4958974;29;20098;-75
2021/10/20 02:28:02;;;;;;;18.45;16.17;;;;;;;;;;4941825;29;20065;-75
2021/10/20 02:30:28;;;;;;;21.10;15.52;;;;;;;;;;4962550;28;20055;-76
2021/10/20 02:32:54;;;;;;;20.40;16.55;;;;;;;;;;4957929;29;20465;-76
2021/10/20 02:35:22;;;;;;;20.20;15.75;;;;;;;;;;4957521;28;20478;-74
2021/10/20 02:37:48;;;;;;;21.40;15.98;;;;;;;;;;4959025;29;20049;-74
2021/10/20 02:40:15;;;;;;;21.15;16.52;;;;;;;;;;4958651;29;20035;-75
2021/10/20 02:42:41;;;;;;;24.00;17.40;;;;;;;;;;4959045;29;20030;-75
2021/10/20 02:45:08;;;;;;;19.83;16.67;;;;;;;;;;4960264;29;20020;-76
2021/10/20 02:47:34;;;;;;;19.67;16.30;;;;;;;;;;4958570;29;20047;-75
2021/10/20 02:50:00;;;;;;;23.42;17.02;;;;;;;;;;4957259;29;20042;-73
2021/10/20 02:52:26;;;;;;;20.17;17.20;;;;;;;;;;4957520;29;20070;-74
2021/10/20 02:54:54;;;;;;;21.58;16.67;;;;;;;;;;4967138;28;20026;-76
2021/10/20 02:57:20;;;;;;;20.88;17.10;;;;;;;;;;4962626;28;20550;-75
2021/10/20 02:59:47;;;;;;;19.52;17.05;;;;;;;;;;4957350;29;20023;-76
2021/10/20 03:02:13;;;;;;;24.58;18.60;;;;;;;;;;4939806;29;20028;-72
2021/10/20 03:04:39;;;;;;;21.85;17.25;;;;;;;;;;4939815;29;20027;-76
2021/10/20 03:07:06;;;;;;;22.23;18.67;;;;;;;;;;4957426;29;20038;-76
2021/10/20 03:09:32;;;;;;;23.85;19.13;;;;;;;;;;4957734;29;20102;-76
2021/10/20 03:11:58;;;;;;;22.77;19.50;;;;;;;;;;4956959;29;20023;-74
2021/10/20 03:14:24;;;;;;;26.48;19.92;;;;;;;;;;4957699;29;20484;-76
2021/10/20 03:16:50;;;;;;;23.98;18.63;;;;;;;;;;4957517;29;20553;-75
2021/10/20 03:19:16;;;;;;;26.45;20.67;;;;;;;;;;4956488;28;20035;-76
2021/10/20 03:21:42;;;;;;;26.15;21.00;;;;;;;;;;4957649;29;20031;-75
2021/10/20 03:24:08;;;;;;;26.00;20.42;;;;;;;;;;4956422;29;20608;-76
2021/10/20 03:26:34;;;;;;;29.00;22.35;;;;;;;;;;4957153;29;20496;-76
2021/10/20 03:29:01;;;;;;;32.42;23.33;;;;;;;;;;4957249;28;20023;-75
2021/10/20 03:31:27;;;;;;;29.17;23.55;;;;;;;;;;4957670;29;20030;-76
2021/10/20 03:33:53;;;;;;;31.17;23.52;;;;;;;;;;4955815;29;20440;-76
2021/10/20 03:36:19;;;;;;;30.25;24.30;;;;;;;;;;4956667;29;20023;-75
2021/10/20 03:38:45;;;;;;;31.75;25.20;;;;;;;;;;4957479;28;20031;-76
2021/10/20 03:41:11;;;;;;;43.63;33.70;;;;;;;;;;4956992;29;20029;-76
2021/10/20 03:43:38;;;;;;;38.35;29.25;;;;;;;;;;4955835;29;20039;-74
2021/10/20 03:46:04;;;;;;;42.78;29.35;;;;;;;;;;4943537;29;20035;-76
2021/10/20 03:48:30;;;;;;;45.40;35.75;;;;;;;;;;4956850;29;20118;-76
2021/10/20 03:50:56;;;;;;;50.95;38.78;;;;;;;;;;4956139;29;20086;-76
2021/10/20 03:53:22;;;;;;;40.83;32.50;;;;;;;;;;4956633;29;20039;-76
2021/10/20 03:55:54;;;;;;;42.83;33.90;;;;;;;;;;4939295;29;20027;-76
2021/10/20 03:58:22;;;;;;;46.25;33.97;;;;;;;;;;4939734;29;20034;-73
2021/10/20 04:00:49;;;;;;;42.85;33.05;;;;;;;;;;4956552;29;20381;-76
2021/10/20 04:03:15;;;;;;;43.22;33.83;;;;;;;;;;4956509;29;20082;-76
2021/10/20 04:05:49;;;;;;;38.95;31.73;;;;;;;;;;4956390;29;20030;-76
2021/10/20 04:08:14;;;;;;;;;;;;;;;;;;4940738;29;20054;-76
2021/10/20 04:10:41;;;;;;;40.15;31.20;;;;;;;;;;4957332;29;20280;-76
2021/10/20 04:13:08;;;;;;;38.97;30.33;;;;;;;;;;4956424;29;20038;-75
2021/10/20 04:15:34;;;;;;;44.88;32.78;;;;;;;;;;4956053;29;20119;-74
2021/10/20 04:18:02;;;;;;;41.25;31.52;;;;;;;;;;4956257;29;20086;-75
2021/10/20 04:20:28;;;;;;;35.22;29.35;;;;;;;;;;4956015;29;20421;-76
2021/10/20 04:22:54;;;;;;;40.08;29.55;;;;;;;;;;4957178;29;20023;-75
2021/10/20 04:25:21;;;;;;;35.60;28.98;;;;;;;;;;4939673;29;20035;-76
2021/10/20 04:27:48;;;;;;;41.50;29.55;;;;;;;;;;4956361;29;20430;-77
2021/10/20 04:30:14;;;;;;;37.47;27.40;;;;;;;;;;4956062;29;20538;-75
2021/10/20 04:32:41;;;;;;;36.00;28.20;;;;;;;;;;4956117;29;20453;-76
2021/10/20 04:35:07;;;;;;;36.33;29.63;;;;;;;;;;4955883;29;20489;-73
2021/10/20 04:37:34;;;;;;;41.35;31.25;;;;;;;;;;4957077;29;20023;-76
2021/10/20 04:40:00;;;;;;;40.72;32.47;;;;;;;;;;4938708;29;20046;-75
2021/10/20 04:42:27;;;;;;;39.88;31.73;;;;;;;;;;4955833;29;20034;-76
2021/10/20 04:44:53;;;;;;;38.60;28.70;;;;;;;;;;4953404;29;20030;-75
2021/10/20 04:47:20;;;;;;;36.53;29.10;;;;;;;;;;4955185;29;20047;-75
2021/10/20 04:49:46;;;;;;;37.40;29.55;;;;;;;;;;4956306;29;20023;-76
2021/10/20 04:52:13;;;;;;;38.38;28.20;;;;;;;;;;4956583;29;20043;-76
2021/10/20 04:54:39;;;;;;;45.20;31.58;;;;;;;;;;4940325;29;20024;-76
2021/10/20 04:57:05;;;;;;;41.38;31.17;;;;;;;;;;4958422;29;20045;-76
2021/10/20 04:59:33;;;;;;;40.97;29.33;;;;;;;;;;4956707;29;20019;-76
2021/10/20 05:01:59;;;;;;;54.55;38.80;;;;;;;;;;4960443;29;20413;-71
2021/10/20 05:04:25;;;;;;;45.95;31.73;;;;;;;;;;4955942;28;20129;-74
2021/10/20 05:06:51;;;;;;;42.75;30.20;;;;;;;;;;4966249;28;20084;-72
2021/10/20 05:09:17;;;;;;;43.25;31.77;;;;;;;;;;4966175;28;20031;-75
2021/10/20 05:11:50;;;;;;;40.72;30.08;;;;;;;;;;4962795;29;20091;-76
2021/10/20 05:14:16;;;;;;;44.20;29.23;;;;;;;;;;4942507;29;20063;-71
2021/10/20 05:16:47;;;;;;;37.65;28.52;;;;;;;;;;4966428;29;20029;-69
2021/10/20 05:19:13;;;;;;;34.13;27.05;;;;;;;;;;4969213;29;20093;-74
2021/10/20 05:21:40;;;;;;;39.25;27.17;;;;;;;;;;4938523;28;20031;-73
2021/10/20 05:24:07;;;;;;;44.25;28.52;;;;;;;;;;4958321;28;20477;-73
2021/10/20 05:26:34;;;;;;;35.33;25.30;;;;;;;;;;4954787;29;20078;-74
2021/10/20 05:29:07;;;;;;;36.40;27.65;;;;;;;;;;4937144;29;20059;-71
2021/10/20 05:31:34;;;;;;;38.85;28.70;;;;;;;;;;4957783;29;20098;-76
2021/10/20 05:34:00;;;;;;;34.92;28.15;;;;;;;;;;4957777;29;20389;-76
2021/10/20 05:36:29;;;;;;;37.70;28.73;;;;;;;;;;4947231;29;20429;-71
2021/10/20 05:38:55;;;;;;;34.58;27.73;;;;;;;;;;4938580;29;20066;-74
2021/10/20 05:41:21;;;;;;;35.92;27.08;;;;;;;;;;4955203;29;20034;-75
2021/10/20 05:43:56;;;;;;;40.30;31.05;;;;;;;;;;4955106;29;20023;-73
2021/10/20 05:46:22;;;;;;;47.42;30.38;;;;;;;;;;4936821;29;20078;-73
2021/10/20 05:49:04;;;;;;;40.05;30.98;;;;;;;;;;4954792;29;20043;-75
2021/10/20 05:51:37;;;;;;;61.25;39.75;;;;;;;;;;4937800;29;20117;-74
2021/10/20 05:54:03;;;;;;;61.70;40.92;;;;;;;;;;4937257;29;20125;-74
2021/10/20 05:56:30;;;;;;;45.10;32.72;;;;;;;;;;4954212;29;20024;-75
2021/10/20 05:58:56;;;;;;;61.25;39.60;;;;;;;;;;4938233;29;20031;-73
2021/10/20 06:01:25;;;;;;;45.40;34.78;;;;;;;;;;4937845;29;20027;-75
2021/10/20 06:03:51;;;;;;;45.85;32.03;;;;;;;;;;4942709;29;20027;-74
2021/10/20 06:06:18;;;;;;;45.90;34.35;;;;;;;;;;4954744;29;20058;-75
2021/10/20 06:08:44;;;;;;;52.10;35.50;;;;;;;;;;4946596;29;20555;-73
2021/10/20 06:11:10;;;;;;;48.38;36.55;;;;;;;;;;4954175;29;20045;-75
2021/10/20 06:13:36;;;;;;;48.03;36.13;;;;;;;;;;4954424;29;20099;-75
2021/10/20 06:16:05;;;;;;;53.42;38.42;;;;;;;;;;4955910;29;20023;-78
2021/10/20 06:18:32;;;;;;;59.97;39.42;;;;;;;;;;4937241;29;20027;-75
2021/10/20 06:20:58;;;;;;;54.95;36.28;;;;;;;;;;4954261;29;20023;-75
2021/10/20 06:23:24;;;;;;;51.10;37.63;;;;;;;;;;4955422;29;20028;-74
2021/10/20 06:25:51;;;;;;;56.90;35.42;;;;;;;;;;4954332;29;20059;-73
2021/10/20 06:28:17;;;;;;;72.47;49.50;;;;;;;;;;4937706;29;20036;-77
2021/10/20 06:30:43;;;;;;;51.45;39.30;;;;;;;;;;4937779;29;20059;-75
2021/10/20 06:33:09;;;;;;;51.50;38.67;;;;;;;;;;4948708;29;20452;-76
2021/10/20 06:35:35;;;;;;;52.95;37.33;;;;;;;;;;4960059;29;20004;-77
2021/10/20 06:38:01;;;;;;;49.88;38.85;;;;;;;;;;4964550;29;20011;-78
2021/10/20 06:40:28;;;;;;;57.67;39.08;;;;;;;;;;4942306;29;20046;-77
2021/10/20 06:43:05;;;;;;;48.95;36.25;;;;;;;;;;4957752;29;20047;-77
2021/10/20 06:45:31;;;;;;;49.45;37.42;;;;;;;;;;4942251;29;20031;-76
2021/10/20 06:47:59;;;;;;;49.75;35.40;;;;;;;;;;4968679;28;20074;-74
2021/10/20 06:50:26;;;;;;;46.83;37.17;;;;;;;;;;4965350;28;20019;-73
2021/10/20 06:52:53;;;;;;;51.33;35.33;;;;;;;;;;4954355;28;20046;-70
2021/10/20 06:55:19;;;;;;;49.72;36.22;;;;;;;;;;4953553;29;20393;-73
2021/10/20 06:57:45;;;;;;;46.38;35.20;;;;;;;;;;4955691;28;20023;-74
2021/10/20 07:00:21;;;;;;;48.42;36.45;;;;;;;;;;4953204;29;20087;-71
2021/10/20 07:02:47;;;;;;;50.45;35.40;;;;;;;;;;4951684;28;20086;-70
2021/10/20 07:05:14;;;;;;;45.75;34.65;;;;;;;;;;4955657;29;20036;-76
2021/10/20 07:07:41;;;;;;;44.83;33.15;;;;;;;;;;4963116;29;20035;-75
2021/10/20 07:10:07;;;;;;;46.58;36.63;;;;;;;;;;4961998;29;20082;-78
2021/10/20 07:12:35;;;;;;;45.40;36.70;;;;;;;;;;4963901;29;20031;-78
2021/10/20 07:15:01;;;;;;;48.17;34.58;;;;;;;;;;4944942;29;20504;-78
2021/10/20 07:17:27;;;;;;;52.53;34.92;;;;;;;;;;4933416;29;20031;-77
2021/10/20 07:19:53;;;;;;;49.95;34.22;;;;;;;;;;4959072;29;20051;-77
2021/10/20 07:22:34;;;;;;;54.78;34.72;;;;;;;;;;4963051;29;20033;-72
2021/10/20 07:25:07;;;;;;;48.17;32.80;;;;;;;;;;4957143;29;20031;-77
2021/10/20 07:27:34;;;;;;;48.63;34.70;;;;;;;;;;4950955;28;20030;-76
2021/10/20 07:30:04;;;;;;;44.20;32.22;;;;;;;;;;4943956;29;20104;-78
2021/10/20 07:32:31;;;;;;;49.70;35.03;;;;;;;;;;4959333;28;20043;-75
2021/10/20 07:34:57;;;;;;;44.10;34.25;;;;;;;;;;4959098;29;20027;-77
2021/10/20 07:37:23;;;;;;;45.45;34.08;;;;;;;;;;4943090;29;20057;-77
2021/10/20 07:39:49;;;;;;;47.60;34.20;;;;;;;;;;4960645;29;20102;-77
2021/10/20 07:42:16;;;;;;;43.45;33.15;;;;;;;;;;4959197;29;20113;-76
2021/10/20 07:44:44;;;;;;;49.00;32.63;;;;;;;;;;4941407;29;20031;-76
2021/10/20 07:47:10;;;;;;;43.13;32.50;;;;;;;;;;4958346;28;20047;-75
2021/10/20 07:49:38;;;;;;;41.25;31.15;;;;;;;;;;4968930;29;20034;-77
2021/10/20 07:52:05;;;;;;;44.60;31.67;;;;;;;;;;4967254;29;20098;-77
2021/10/20 07:54:31;;;;;;;54.83;32.50;;;;;;;;;;4939918;29;20035;-73
2021/10/20 07:56:58;;;;;;;44.83;32.83;;;;;;;;;;4955846;29;20493;-71
2021/10/20 07:59:26;;;;;;;38.75;29.50;;;;;;;;;;4957008;28;20038;-71
2021/10/20 08:01:52;;;;;;;41.97;31.17;;;;;;;;;;4957307;28;20023;-71
2021/10/20 08:04:18;;;;;;;41.35;30.40;;;;;;;;;;4955418;29;20035;-73
2021/10/20 08:06:44;;;;;;;40.97;29.38;;;;;;;;;;4954932;29;20023;-70
2021/10/20 08:09:10;;;;;;;36.88;28.65;;;;;;;;;;4938286;29;20060;-75
2021/10/20 08:11:38;;;;;;;35.15;26.25;;;;;;;;;;4961486;29;20023;-77
2021/10/20 08:14:04;;;;;;;36.72;27.10;;;;;;;;;;4958357;28;20066;-77
2021/10/20 08:16:31;;;;;;;35.08;25.70;;;;;;;;;;4957051;29;20020;-76
2021/10/20 08:18:58;;;;;;;33.05;26.50;;;;;;;;;;4961846;29;20410;-77
2021/10/20 08:21:31;;;;;;;37.45;27.88;;;;;;;;;;4956637;29;20023;-73
2021/10/20 08:23:57;;;;;;;37.15;27.00;;;;;;;;;;4961477;29;20031;-76
2021/10/20 08:26:23;;;;;;;34.70;25.50;;;;;;;;;;4965134;29;20087;-75
2021/10/20 08:28:50;;;;;;;30.33;22.73;;;;;;;;;;4956727;29;20027;-76
2021/10/20 08:31:16;;;;;;;28.77;21.13;;;;;;;;;;4958365;29;20050;-74
2021/10/20 08:33:42;;;;;;;28.00;21.80;;;;;;;;;;4959338;29;20043;-77
2021/10/20 08:36:09;;;;;;;33.47;23.15;;;;;;;;;;4942027;29;20394;-73
2021/10/20 08:38:50;;;;;;;25.58;19.02;;;;;;;;;;4941919;29;20389;-76
2021/10/20 08:41:19;;;;;;;29.50;20.50;;;;;;;;;;4964580;29;20034;-77
2021/10/20 08:44:02;;;;;;;38.10;21.90;;;;;;;;;;4963581;29;20031;-77
2021/10/20 08:46:32;;;;;;;26.33;20.55;;;;;;;;;;4965964;29;20087;-77
2021/10/20 08:49:00;;;;;;;27.35;22.02;;;;;;;;;;4933682;29;20042;-76
2021/10/20 08:51:26;;;;;;;21.85;16.95;;;;;;;;;;4935502;29;20034;-77
2021/10/20 08:53:56;;;;;;;24.33;17.38;;;;;;;;;;4946512;29;20087;-75
2021/10/20 08:56:23;;;;;;;21.00;17.13;;;;;;;;;;4949807;29;20075;-79
2021/10/20 08:58:54;;;;;;;20.73;17.38;;;;;;;;;;4935271;29;20051;-79
2021/10/20 09:01:22;;;;;;;23.77;18.77;;;;;;;;;;4940603;29;20032;-74
2021/10/20 09:03:48;;;;;;;22.10;18.88;;;;;;;;;;4928821;29;20028;-74
2021/10/20 09:06:15;;;;;;;26.02;19.30;;;;;;;;;;4941290;29;20027;-73
2021/10/20 09:08:44;;;;;;;24.25;17.50;;;;;;;;;;4938784;29;20031;-72
2021/10/20 09:11:33;;;;;;;25.17;17.05;;;;;;;;;;4943225;29;20036;-72
2021/10/20 09:14:20;;;;;;;27.88;18.85;;;;;;;;;;4944500;29;20035;-71
2021/10/20 09:16:46;;;;;;;19.60;15.15;;;;;;;;;;4939808;29;20023;-71
2021/10/20 09:19:22;;;;;;;21.80;15.90;;;;;;;;;;4943763;29;20044;-72
2021/10/20 09:22:04;;;;;;;19.27;15.23;;;;;;;;;;4946813;29;20030;-76
2021/10/20 09:24:45;;;;;;;20.63;16.63;;;;;;;;;;4950482;29;20030;-80
2021/10/20 09:27:27;;;;;;;23.02;15.88;;;;;;;;;;4946269;29;20107;-77
2021/10/20 09:30:10;;;;;;;22.92;15.88;;;;;;;;;;4922783;29;20027;-78
2021/10/20 09:35:45;;;;;;;19.73;15.00;;;;;;;;;;4949398;29;20064;-80
2021/10/20 09:38:15;;;;;;;18.13;14.85;;;;;;;;;;4943035;28;20087;-78
2021/10/20 09:40:43;;;;;;;21.17;14.13;;;;;;;;;;4932287;29;20039;-76
2021/10/20 09:43:17;;;;;;;23.90;14.48;;;;;;;;;;4928874;29;20524;-75
2021/10/20 09:48:20;;;;;;;21.02;14.63;;;;;;;;;;5967502;23;20789;-75
2021/10/20 09:50:56;;;;;;;21.38;13.88;;;;;;;;;;4980396;28;20131;-74
2021/10/20 09:53:22;;;;;;;18.83;14.43;;;;;;;;;;4954189;28;20042;-72
2021/10/20 09:55:48;;;;;;;20.42;14.05;;;;;;;;;;4971720;28;20109;-70
2021/10/20 09:58:15;;;;;;;16.40;14.55;;;;;;;;;;4971550;28;20114;-69
2021/10/20 10:04:40;;;;;;;;;;;;;;;;;;;;;
2021/10/20 10:07:07;;;;;;;23.45;15.32;;;;;;;;;;4874933;29;20495;-71
2021/10/20 10:09:33;;;;;;;21.13;14.85;;;;;;;;;;4874390;29;20045;-71
2021/10/20 10:18:39;;;;;;;24.40;15.70;;;;;;;;;;4874869;29;20133;-72
2021/10/20 10:21:45;;;;;;;20.67;15.07;;;;;;;;;;4875572;29;20446;-71
2021/10/20 10:24:15;;;;;;;17.60;14.57;;;;;;;;;;4861907;29;20040;-71
2021/10/20 10:27:08;;;;;;;18.48;15.13;;;;;;;;;;4875583;29;20029;-72
2021/10/20 10:29:38;;;;;;;20.45;15.05;;;;;;;;;;4866966;29;20159;-77
2021/10/20 10:32:18;;;;;;;17.27;14.50;;;;;;;;;;4885571;29;20037;-78
2021/10/20 10:34:45;;;;;;;21.77;15.52;;;;;;;;;;4875512;29;20099;-78
2021/10/20 10:37:31;;;;;;;21.77;14.18;;;;;;;;;;4875180;29;20025;-75
2021/10/20 10:40:01;;;;;;;19.67;14.77;;;;;;;;;;4884976;29;20047;-72
2021/10/20 10:42:34;;;;;;;17.40;14.00;;;;;;;;;;4940001;28;20433;-75
2021/10/20 10:45:13;;;;;;;19.52;13.85;;;;;;;;;;4958864;28;20465;-74
2021/10/20 10:47:57;;;;;;;16.20;13.43;;;;;;;;;;4958283;28;20097;-73
2021/10/20 10:50:57;;;;;;;20.83;14.10;;;;;;;;;;4957173;28;20134;-71
2021/10/20 10:53:27;;;;;;;18.17;13.15;;;;;;;;;;4949784;28;20043;-74
2021/10/20 10:56:07;;;;;;;17.27;12.93;;;;;;;;;;4959959;28;20042;-75
2021/10/20 10:58:52;;;;;;;18.33;13.68;;;;;;;;;;4958367;28;20035;-74
2021/10/20 11:01:37;;;;;;;18.52;13.43;;;;;;;;;;4966423;28;20519;-74
2021/10/20 11:04:18;;;;;;;19.65;13.15;;;;;;;;;;4957796;28;20053;-74
2021/10/20 11:06:44;;;;;;;21.42;12.68;;;;;;;;;;4965513;28;20541;-74
2021/10/20 11:09:27;;;;;;;20.08;13.00;;;;;;;;;;4962375;28;20031;-71
2021/10/20 11:11:54;;;;;;;16.90;12.98;;;;;;;;;;4966653;28;20460;-72
2021/10/20 11:14:23;;;;;;;18.55;12.50;;;;;;;;;;4958358;28;20039;-72
2021/10/20 11:16:50;;;;;;;17.55;12.27;;;;;;;;;;4969311;28;20032;-72
2021/10/20 11:19:22;;;;;;;16.08;12.27;;;;;;;;;;4957787;28;20046;-73
2021/10/20 11:21:49;;;;;;;17.83;12.98;;;;;;;;;;4959435;28;20429;-73
2021/10/20 11:24:15;;;;;;;21.65;12.30;;;;;;;;;;4957719;28;20037;-73
2021/10/20 11:26:46;;;;;;;17.02;11.75;;;;;;;;;;4957597;28;20019;-73
2021/10/20 11:29:13;;;;;;;15.75;12.02;;;;;;;;;;4958208;28;20173;-73
2021/10/20 11:31:40;;;;;;;18.42;12.75;;;;;;;;;;4959044;28;20492;-73
2021/10/20 11:34:55;;;;;;;;;;;;;;;;;;;;;
2021/10/20 11:37:23;;;;;;;17.65;11.38;;;;;;;;;;4975354;28;20494;-73
2021/10/20 11:39:52;;;;;;;15.90;11.23;;;;;;;;;;4977083;28;20393;-70
2021/10/20 11:42:18;;;;;;;17.45;11.23;;;;;;;;;;4972940;28;20039;-72
2021/10/20 11:44:44;;;;;;;16.92;11.88;;;;;;;;;;4973091;28;20511;-73
2021/10/20 11:47:13;;;;;;;16.45;11.77;;;;;;;;;;4971365;28;20118;-75
2021/10/20 11:49:43;;;;;;;18.75;11.90;;;;;;;;;;4975291;28;20389;-74
2021/10/20 11:52:48;;;;;;;;;;;;;;;;;;;;;
2021/10/20 11:55:14;;;;;;;14.90;11.20;;;;;;;;;;4923152;29;20042;-71
2021/10/20 11:57:44;;;;;;;18.55;11.40;;;;;;;;;;4974043;28;20026;-73
2021/10/20 12:00:42;;;;;;;19.38;12.57;;;;;;;;;;4974075;28;20082;-73
2021/10/20 12:03:09;;;;;;;17.27;11.52;;;;;;;;;;4898243;29;20064;-73
2021/10/20 12:05:54;;;;;;;14.45;10.90;;;;;;;;;;4895281;29;20045;-73
2021/10/20 12:08:45;;;;;;;15.88;11.05;;;;;;;;;;4889885;29;20032;-72
2021/10/20 12:11:12;;;;;;;15.27;11.00;;;;;;;;;;4882135;29;20036;-73
2021/10/20 12:13:53;;;;;;;15.40;11.05;;;;;;;;;;4903829;29;20044;-74
2021/10/20 12:16:45;;;;;;;;;;;;;;;;;;;;;
2021/10/20 12:19:12;;;;;;;17.63;11.35;;;;;;;;;;4899492;29;20035;-73
2021/10/20 12:22:07;;;;;;;17.33;10.85;;;;;;;;;;4897272;29;20044;-72
2021/10/20 12:24:37;;;;;;;23.48;14.57;;;;;;;;;;4823321;29;20070;-73
2021/10/20 12:27:10;;;;;;;36.08;19.83;;;;;;;;;;4823493;29;20050;-72
2021/10/20 12:29:46;;;;;;;34.90;19.35;;;;;;;;;;4823062;29;20169;-72
2021/10/20 12:32:23;;;;;;;24.75;13.52;;;;;;;;;;4823006;29;20480;-73
2021/10/20 12:35:00;;;;;;;24.08;14.50;;;;;;;;;;4823107;29;20510;-71
2021/10/20 12:37:47;;;;;;;11.80;8.73;;;;;;;;;;4822777;29;20031;-73
2021/10/20 12:40:19;;;;;;;11.45;9.18;;;;;;;;;;4897125;29;20432;-73
2021/10/20 12:42:51;;;;;;;16.83;9.90;;;;;;;;;;4895991;29;20176;-73
2021/10/20 12:45:17;;;;;;;16.55;9.98;;;;;;;;;;4896963;29;20040;-74
2021/10/20 12:48:05;;;;;;;;;;;;;;;;;;;;;
2021/10/20 12:50:35;;;;;;;16.50;10.85;;;;;;;;;;4901087;29;20044;-73
2021/10/20 12:53:01;;;;;;;22.23;13.65;;;;;;;;;;4916001;29;20052;-73
2021/10/20 13:01:31;;;;;;;14.03;10.00;;;;;;;;;;4895803;29;20051;-71
2021/10/20 13:03:57;;;;;;;17.25;10.38;;;;;;;;;;4897419;29;20032;-73
2021/10/20 13:06:23;;;;;;;14.70;9.60;;;;;;;;;;4897133;29;20184;-72
2021/10/20 13:08:50;;;;;;;13.82;9.63;;;;;;;;;;4898715;29;20041;-74
2021/10/20 13:14:34;;;;;;;12.45;9.13;;;;;;;;;;4866952;29;20199;-75
2021/10/20 13:17:00;;;;;;;13.60;9.82;;;;;;;;;;4877843;29;20044;-75
2021/10/20 13:19:52;;;;;;;20.90;10.55;;;;;;;;;;4866440;29;20492;-75
2021/10/20 13:22:19;;;;;;;16.23;9.55;;;;;;;;;;4867443;29;20052;-75
2021/10/20 13:25:11;;;;;;;15.50;10.55;;;;;;;;;;4877548;29;20071;-75
2021/10/20 13:27:37;;;;;;;11.63;8.80;;;;;;;;;;4866395;29;20080;-75
2021/10/20 13:30:05;;;;;;;15.90;8.50;;;;;;;;;;4868803;29;20041;-75
2021/10/20 13:32:31;;;;;;;21.35;9.88;;;;;;;;;;4868938;29;20052;-73
2021/10/20 13:35:00;;;;;;;14.52;9.82;;;;;;;;;;4886192;29;20047;-75
2021/10/20 13:37:29;;;;;;;16.45;10.63;;;;;;;;;;4919731;29;20398;-73
2021/10/20 13:39:55;;;;;;;17.25;11.00;;;;;;;;;;4932178;29;20036;-73
2021/10/20 13:42:21;;;;;;;22.00;12.90;;;;;;;;;;4932150;29;20032;-73
2021/10/20 13:44:47;;;;;;;16.98;11.27;;;;;;;;;;4933965;29;20047;-73
2021/10/20 13:47:13;;;;;;;24.48;15.45;;;;;;;;;;4933784;29;20095;-74
2021/10/20 13:49:39;;;;;;;21.05;14.38;;;;;;;;;;4939651;29;20031;-74
2021/10/20 13:52:05;;;;;;;37.90;14.77;;;;;;;;;;4956131;28;20039;-71
2021/10/20 13:54:31;;;;;;;17.80;11.05;;;;;;;;;;4960980;28;20026;-74
2021/10/20 13:57:37;;;;;;;;;;;;;;;;;;;;;
2021/10/20 14:00:04;;;;;;;13.60;9.63;;;;;;;;;;4962888;28;20492;-72
2021/10/20 14:02:30;;;;;;;13.77;10.32;;;;;;;;;;4969928;28;20035;-72
2021/10/20 14:04:57;;;;;;;20.08;10.55;;;;;;;;;;4959045;28;20027;-73
2021/10/20 14:07:23;;;;;;;18.70;12.68;;;;;;;;;;4968347;28;20033;-73
2021/10/20 14:09:49;;;;;;;18.75;12.25;;;;;;;;;;4973992;28;20015;-73
2021/10/20 14:12:15;;;;;;;19.67;13.63;;;;;;;;;;4970832;28;20039;-72
2021/10/20 14:14:42;;;;;;;18.50;10.50;;;;;;;;;;4957808;28;20366;-73
2021/10/20 14:17:09;;;;;;;17.42;12.02;;;;;;;;;;4964182;28;20070;-74
2021/10/20 14:19:35;;;;;;;18.27;13.68;;;;;;;;;;4975407;28;20035;-73
2021/10/20 14:22:02;;;;;;;18.80;11.38;;;;;;;;;;4976042;28;20027;-73
2021/10/20 14:24:28;;;;;;;19.85;12.85;;;;;;;;;;4976268;28;20039;-74
2021/10/20 14:27:05;;;;;;;21.27;12.45;;;;;;;;;;4974219;28;20030;-73
2021/10/20 14:29:34;;;;;;;26.30;15.35;;;;;;;;;;4961489;28;20097;-73
2021/10/20 14:32:00;;;;;;;24.67;16.42;;;;;;;;;;4973523;28;20021;-74
2021/10/20 14:34:26;;;;;;;25.42;16.70;;;;;;;;;;4982397;28;20045;-76
2021/10/20 14:36:52;;;;;;;32.60;17.05;;;;;;;;;;4979221;28;20018;-74
2021/10/20 14:39:18;;;;;;;27.35;18.67;;;;;;;;;;4974417;28;20030;-73
2021/10/20 14:41:45;;;;;;;30.17;18.65;;;;;;;;;;4973736;28;20026;-71
2021/10/20 14:47:06;;;;;;;34.13;19.60;;;;;;;;;;4964115;28;20102;-72
2021/10/20 14:49:33;;;;;;;35.65;18.23;;;;;;;;;;4954167;28;20020;-71
2021/10/20 14:52:00;;;;;;;31.83;17.35;;;;;;;;;;4970438;28;20055;-71
2021/10/20 14:54:26;;;;;;;37.47;22.33;;;;;;;;;;4971151;28;20512;-74
2021/10/20 14:57:07;;;;;;;39.03;24.30;;;;;;;;;;4974997;28;20449;-74
2021/10/20 14:59:33;;;;;;;43.95;28.95;;;;;;;;;;4961668;28;20031;-74
2021/10/20 15:02:01;;;;;;;64.13;41.35;;;;;;;;;;4976770;28;20019;-72
2021/10/20 15:04:27;;;;;;;57.60;37.25;;;;;;;;;;4973699;28;20081;-72